Impacts TAF Board
For situational awareness. Not to be used for flight planning purposes.
IDs:

KFLL - Ft Lauderdale-Hollyw, FL, US

Issued at 0529 UTC 19 Aug 2019
Updated at 0618 UTC 19 Aug 2019
Potential Impact None Slight Moderate High
Time0553Z 19/07Z 19/08Z 19/09Z 19/10Z 19/11Z 19/12Z 19/13Z 19/14Z 19/15Z 19/16Z 19/17Z 19/18Z 19/19Z>>
Type OBS PRVL PRVL PRVL PRVL PRVL PRVL PRVL PRVL PRVL PRVL PRVL PRVL PRVL
VIS 10 >6 >6 >6 >6 >6 >6 >6 >6 >6 >6 >6 >6 >6
CIG -- -- -- -- -- -- -- -- -- -- -- -- -- --
Cover CLR FEW FEW FEW FEW FEW FEW FEW FEW SCT SCT SCT SCT SCT
FltCat VFR VFR VFR VFR VFR VFR VFR VFR VFR VFR VFR VFR VFR VFR
WX -- -- -- -- -- -- -- -- -- VCSH VCSH VCSH VCSH VCSH
WDir 90 100 100 100 100 100 100 100 100 80 80 80 80 80
WSpd 9 7 7 7 7 7 7 7 7 11 11 11 11 11
WGst -- -- -- -- -- -- -- -- -- -- -- -- -- --
Raw TAF
KFLL 190529Z 1906/2012 10007KT P6SM FEW030
  FM191500 08011KT P6SM VCSH SCT035 SCT060 SCT100
  FM192300 08008KT P6SM FEW030 SCT050 SCT100


Raw METAR
KFLL 190553Z 09009KT 10SM CLR 28/23 A3005 RMK AO2 SLP176 T02830228 10294 20283 58006 $
KFLL 190453Z 10008KT 10SM FEW023 29/22 A3007 RMK AO2 SLP182 T02890222 403280256 $
KFLL 190353Z 10010KT 10SM FEW025 29/23 A3007 RMK AO2 SLP182 T02890228 $

METAR Board
Radar Display
Forecast Discussion
For situational awareness. Not to be used for flight planning purposes.